Time;durP1;ratioP1;P1;durP2;ratioP2;P2;SDS_P1;SDS_P2;PMS_P1;PMS_P2;Temp;Humidity;BMP_temperature;BMP_pressure;BME280_temperature;BME280_humidity;BME280_pressure;Samples;Min_cycle;Max_cycle;Signal;HPM_P1;HPM_P2
2022/09/23 00:00:14;;;;;;;8.77;4.72;;;;;;;;;;5038943;28;20487;-60
2022/09/23 00:02:41;;;;;;;7.78;4.90;;;;;;;;;;5031017;28;20053;-61
2022/09/23 00:05:09;;;;;;;9.45;4.45;;;;;;;;;;5014619;28;20033;-60
2022/09/23 00:07:34;;;;;;;8.52;4.60;;;;;;;;;;5028009;28;20479;-60
2022/09/23 00:10:00;;;;;;;8.73;4.90;;;;;;;;;;5032203;28;20044;-62
2022/09/23 00:12:25;;;;;;;7.45;4.80;;;;;;;;;;5031342;28;20032;-61
2022/09/23 00:14:50;;;;;;;7.80;4.55;;;;;;;;;;5032330;28;20040;-60
2022/09/23 00:17:16;;;;;;;8.15;4.80;;;;;;;;;;5030622;28;20041;-61
2022/09/23 00:19:42;;;;;;;6.35;4.60;;;;;;;;;;5034069;28;20049;-61
2022/09/23 00:22:07;;;;;;;7.60;4.50;;;;;;;;;;5030196;28;20442;-61
2022/09/23 00:24:33;;;;;;;14.35;5.00;;;;;;;;;;5046444;28;20041;-62
2022/09/23 00:26:59;;;;;;;7.57;4.60;;;;;;;;;;5034498;28;20094;-61
2022/09/23 00:29:25;;;;;;;7.57;4.53;;;;;;;;;;5025229;28;20471;-61
2022/09/23 00:31:50;;;;;;;8.63;4.50;;;;;;;;;;5020930;28;20509;-60
2022/09/23 00:34:16;;;;;;;8.20;4.68;;;;;;;;;;5029196;28;20041;-61
2022/09/23 00:36:42;;;;;;;6.35;4.45;;;;;;;;;;5033840;28;20037;-60
2022/09/23 00:39:08;;;;;;;5.88;4.22;;;;;;;;;;5030656;28;20042;-60
2022/09/23 00:41:35;;;;;;;7.88;4.57;;;;;;;;;;5038189;28;20034;-60
2022/09/23 00:44:01;;;;;;;5.70;3.97;;;;;;;;;;5028745;28;20136;-60
2022/09/23 00:46:55;;;;;;;7.55;4.25;;;;;;;;;;5034935;28;20037;-60
2022/09/23 00:49:28;;;;;;;8.27;4.45;;;;;;;;;;5014348;28;20045;-60
2022/09/23 00:51:58;;;;;;;9.35;4.50;;;;;;;;;;5021673;28;20034;-60
2022/09/23 00:54:26;;;;;;;6.27;4.40;;;;;;;;;;5044420;28;20470;-60
2022/09/23 00:56:52;;;;;;;7.85;4.30;;;;;;;;;;5031455;28;20434;-61
2022/09/23 00:59:19;;;;;;;8.20;4.60;;;;;;;;;;5019976;28;20033;-59
2022/09/23 01:01:45;;;;;;;7.88;4.45;;;;;;;;;;5032675;28;20032;-60
2022/09/23 01:04:11;;;;;;;8.13;4.65;;;;;;;;;;5031008;28;20042;-60
2022/09/23 01:06:36;;;;;;;6.90;4.20;;;;;;;;;;5028019;28;20040;-60
2022/09/23 01:09:02;;;;;;;7.13;4.22;;;;;;;;;;5041431;28;20036;-60
2022/09/23 01:11:47;;;;;;;7.32;4.45;;;;;;;;;;5030978;28;20038;-60
2022/09/23 01:14:42;;;;;;;8.48;4.60;;;;;;;;;;5045748;28;20095;-60
2022/09/23 01:17:20;;;;;;;6.72;4.25;;;;;;;;;;5028796;28;20041;-60
2022/09/23 01:19:56;;;;;;;6.95;4.35;;;;;;;;;;5018570;28;20056;-60
2022/09/23 01:22:45;;;;;;;6.85;4.28;;;;;;;;;;5042848;28;20065;-60
2022/09/23 01:25:39;;;;;;;7.28;4.03;;;;;;;;;;5035996;28;20037;-61
2022/09/23 01:28:29;;;;;;;6.20;4.10;;;;;;;;;;5031862;28;20037;-61
2022/09/23 01:31:16;;;;;;;7.22;4.57;;;;;;;;;;5029943;28;20037;-60
2022/09/23 01:33:41;;;;;;;5.25;4.05;;;;;;;;;;5031218;28;20095;-60
2022/09/23 01:36:32;;;;;;;6.13;3.95;;;;;;;;;;5014161;28;20030;-61
2022/09/23 01:39:39;;;;;;;6.35;4.20;;;;;;;;;;5028835;28;20040;-60
2022/09/23 01:42:22;;;;;;;6.90;4.35;;;;;;;;;;4995645;28;20054;-60
2022/09/23 01:45:13;;;;;;;6.95;4.20;;;;;;;;;;5020658;28;20032;-60
2022/09/23 01:47:47;;;;;;;7.47;4.30;;;;;;;;;;5021234;28;20394;-61
2022/09/23 01:53:10;;;;;;;9.52;4.40;;;;;;;;;;5030147;28;20444;-60
2022/09/23 01:55:40;;;;;;;9.57;4.30;;;;;;;;;;5035468;28;20029;-60
2022/09/23 01:58:11;;;;;;;7.30;4.60;;;;;;;;;;5029329;28;20034;-60
2022/09/23 02:00:42;;;;;;;6.53;4.30;;;;;;;;;;5031275;28;20075;-60
2022/09/23 02:03:16;;;;;;;8.65;4.50;;;;;;;;;;5030967;28;20033;-60
2022/09/23 02:05:49;;;;;;;6.47;4.07;;;;;;;;;;5025898;28;20038;-60
2022/09/23 02:08:47;;;;;;;6.38;4.25;;;;;;;;;;5030258;28;20040;-61
2022/09/23 02:11:14;;;;;;;7.45;4.28;;;;;;;;;;5003025;28;20137;-60
2022/09/23 02:14:03;;;;;;;6.70;4.28;;;;;;;;;;5027776;28;20394;-60
2022/09/23 02:16:34;;;;;;;6.75;4.20;;;;;;;;;;5023802;28;20032;-60
2022/09/23 02:19:11;;;;;;;7.47;4.32;;;;;;;;;;5032984;28;20033;-60
2022/09/23 02:21:48;;;;;;;7.25;4.30;;;;;;;;;;5025642;28;20029;-60
2022/09/23 02:24:20;;;;;;;6.75;4.30;;;;;;;;;;5029280;28;20449;-60
2022/09/23 02:26:54;;;;;;;6.72;3.75;;;;;;;;;;5028119;28;20184;-60
2022/09/23 02:29:23;;;;;;;5.82;4.03;;;;;;;;;;5027050;28;20045;-61
2022/09/23 02:32:30;;;;;;;6.93;4.40;;;;;;;;;;5045169;28;20032;-61
2022/09/23 02:35:21;;;;;;;7.10;4.07;;;;;;;;;;5010706;28;20041;-61
2022/09/23 02:38:13;;;;;;;7.88;4.05;;;;;;;;;;5015372;28;20130;-60
2022/09/23 02:40:57;;;;;;;5.82;4.05;;;;;;;;;;5030128;28;20512;-61
2022/09/23 02:43:52;;;;;;;10.00;4.32;;;;;;;;;;5029444;28;20129;-61
2022/09/23 02:46:19;;;;;;;5.85;4.25;;;;;;;;;;5025930;28;20056;-62
2022/09/23 02:48:52;;;;;;;6.35;3.85;;;;;;;;;;5025480;28;20042;-62
2022/09/23 02:51:18;;;;;;;7.20;4.20;;;;;;;;;;5015388;28;20108;-62
2022/09/23 02:53:44;;;;;;;6.57;3.72;;;;;;;;;;5027933;28;20565;-62
2022/09/23 02:56:20;;;;;;;6.32;4.03;;;;;;;;;;5030412;28;20065;-61
2022/09/23 02:58:50;;;;;;;6.70;3.90;;;;;;;;;;5030696;28;20039;-62
2022/09/23 03:01:31;;;;;;;7.07;3.92;;;;;;;;;;5036237;28;20037;-61
2022/09/23 03:04:21;;;;;;;7.25;3.85;;;;;;;;;;5036610;28;20069;-63
2022/09/23 03:07:12;;;;;;;6.07;3.60;;;;;;;;;;5011472;28;20037;-62
2022/09/23 03:09:37;;;;;;;5.63;3.70;;;;;;;;;;5027151;28;20266;-61
2022/09/23 03:12:11;;;;;;;8.30;3.83;;;;;;;;;;5027231;28;20747;-62
2022/09/23 03:14:53;;;;;;;6.25;4.25;;;;;;;;;;5009873;28;20053;-61
2022/09/23 03:17:36;;;;;;;6.18;3.92;;;;;;;;;;5029544;28;20033;-61
2022/09/23 03:20:06;;;;;;;7.05;4.03;;;;;;;;;;5041733;28;20063;-60
2022/09/23 03:22:38;;;;;;;5.25;3.60;;;;;;;;;;5028687;28;20118;-60
2022/09/23 03:25:09;;;;;;;5.80;4.00;;;;;;;;;;5030358;28;20033;-60
2022/09/23 03:27:36;;;;;;;7.25;3.53;;;;;;;;;;5049432;28;20036;-61
2022/09/23 03:30:04;;;;;;;7.78;4.32;;;;;;;;;;5042598;28;20099;-61
2022/09/23 03:32:31;;;;;;;5.13;3.38;;;;;;;;;;5030978;28;20033;-60
2022/09/23 03:34:58;;;;;;;6.75;4.10;;;;;;;;;;5025008;28;20364;-60
2022/09/23 03:37:24;;;;;;;6.88;4.03;;;;;;;;;;5028401;28;20037;-60
2022/09/23 03:39:58;;;;;;;8.13;4.40;;;;;;;;;;5032546;28;20041;-60
2022/09/23 03:42:29;;;;;;;5.80;3.80;;;;;;;;;;5033239;28;20036;-61
2022/09/23 03:44:56;;;;;;;5.82;4.03;;;;;;;;;;5040059;28;20040;-60
2022/09/23 03:47:24;;;;;;;5.70;3.90;;;;;;;;;;5031558;28;20051;-61
2022/09/23 03:49:50;;;;;;;8.57;4.45;;;;;;;;;;5040518;28;20025;-60
2022/09/23 03:52:46;;;;;;;6.15;4.18;;;;;;;;;;5034978;28;20544;-60
2022/09/23 03:55:11;;;;;;;6.55;4.10;;;;;;;;;;5014161;28;20067;-60
2022/09/23 03:57:48;;;;;;;6.15;4.07;;;;;;;;;;5038108;28;20623;-60
2022/09/23 04:00:14;;;;;;;6.47;4.30;;;;;;;;;;5034836;28;20120;-60
2022/09/23 04:02:40;;;;;;;7.00;4.03;;;;;;;;;;5041659;28;20116;-60
2022/09/23 04:05:07;;;;;;;7.05;4.28;;;;;;;;;;5041862;28;20075;-60
2022/09/23 04:07:32;;;;;;;8.93;4.40;;;;;;;;;;5031453;28;20530;-59
2022/09/23 04:09:58;;;;;;;7.20;4.28;;;;;;;;;;5035645;28;20037;-60
2022/09/23 04:12:23;;;;;;;7.20;4.30;;;;;;;;;;5041582;28;20029;-60
2022/09/23 04:14:48;;;;;;;7.15;4.35;;;;;;;;;;5036710;28;20047;-59
2022/09/23 04:17:14;;;;;;;7.85;4.15;;;;;;;;;;5042106;28;20060;-60
2022/09/23 04:19:40;;;;;;;8.05;4.35;;;;;;;;;;5037327;28;20044;-60
2022/09/23 04:22:07;;;;;;;9.77;4.80;;;;;;;;;;5053292;28;20071;-61
2022/09/23 04:24:33;;;;;;;7.15;4.40;;;;;;;;;;5043978;28;20120;-59
2022/09/23 04:26:58;;;;;;;7.25;4.50;;;;;;;;;;5030650;28;20120;-60
2022/09/23 04:29:24;;;;;;;8.98;4.85;;;;;;;;;;5029679;28;20541;-61
2022/09/23 04:31:50;;;;;;;7.32;4.68;;;;;;;;;;5033270;28;20026;-60
2022/09/23 04:34:16;;;;;;;6.75;4.50;;;;;;;;;;5015610;28;20065;-61
2022/09/23 04:36:43;;;;;;;7.65;4.30;;;;;;;;;;5030050;28;20033;-60
2022/09/23 04:39:09;;;;;;;8.90;4.95;;;;;;;;;;5031683;28;20068;-61
2022/09/23 04:41:35;;;;;;;6.95;4.43;;;;;;;;;;5039970;28;20034;-61
2022/09/23 04:44:00;;;;;;;7.28;4.70;;;;;;;;;;5033036;28;20045;-60
2022/09/23 04:46:26;;;;;;;6.53;4.43;;;;;;;;;;5028675;28;20035;-60
2022/09/23 04:48:51;;;;;;;7.80;4.93;;;;;;;;;;5044757;28;20119;-60
2022/09/23 04:51:19;;;;;;;7.88;5.03;;;;;;;;;;5031847;28;20037;-60
2022/09/23 04:53:48;;;;;;;6.57;4.88;;;;;;;;;;5015496;28;20095;-60
2022/09/23 04:56:21;;;;;;;10.20;4.75;;;;;;;;;;5033371;28;20477;-60
2022/09/23 04:58:48;;;;;;;8.88;5.00;;;;;;;;;;5032251;28;20029;-60
2022/09/23 05:01:16;;;;;;;8.45;4.97;;;;;;;;;;5052334;28;20095;-63
2022/09/23 05:03:43;;;;;;;7.95;4.70;;;;;;;;;;5047675;28;20068;-60
2022/09/23 05:06:12;;;;;;;7.43;4.63;;;;;;;;;;5050452;28;20519;-60
2022/09/23 05:08:38;;;;;;;7.38;4.63;;;;;;;;;;5036192;28;20307;-59
2022/09/23 05:11:04;;;;;;;6.63;4.60;;;;;;;;;;5031113;28;20071;-60
2022/09/23 05:13:31;;;;;;;7.15;4.70;;;;;;;;;;5048442;28;20029;-60
2022/09/23 05:16:08;;;;;;;7.60;4.68;;;;;;;;;;5052615;28;20032;-61
2022/09/23 05:18:34;;;;;;;7.28;5.00;;;;;;;;;;5045814;28;20044;-62
2022/09/23 05:21:00;;;;;;;9.18;4.75;;;;;;;;;;5051446;28;20053;-62
2022/09/23 05:23:26;;;;;;;8.30;5.20;;;;;;;;;;5045629;28;20029;-64
2022/09/23 05:26:00;;;;;;;6.43;4.63;;;;;;;;;;5043012;28;20064;-63
2022/09/23 05:28:28;;;;;;;10.32;4.72;;;;;;;;;;5047426;28;20094;-62
2022/09/23 05:31:13;;;;;;;7.93;4.72;;;;;;;;;;5031543;28;20038;-61
2022/09/23 05:33:39;;;;;;;7.07;5.07;;;;;;;;;;5049777;28;20036;-62
2022/09/23 05:36:14;;;;;;;10.20;5.15;;;;;;;;;;5050608;28;20044;-61
2022/09/23 05:38:39;;;;;;;7.80;5.03;;;;;;;;;;5046897;28;20044;-61
2022/09/23 05:41:10;;;;;;;7.50;5.05;;;;;;;;;;5041545;28;20044;-61
2022/09/23 05:43:36;;;;;;;;;;;;;;;;;;5025256;28;20033;-61
2022/09/23 05:46:06;;;;;;;8.50;5.13;;;;;;;;;;5028454;28;19917;-62
2022/09/23 05:48:33;;;;;;;6.30;4.80;;;;;;;;;;5041735;28;20032;-62
2022/09/23 05:50:59;;;;;;;7.03;4.75;;;;;;;;;;5040600;28;20048;-62
2022/09/23 05:53:26;;;;;;;10.32;5.60;;;;;;;;;;5029887;28;20100;-62
2022/09/23 05:55:53;;;;;;;7.60;5.05;;;;;;;;;;5031713;28;20041;-61
2022/09/23 05:58:19;;;;;;;7.68;5.13;;;;;;;;;;5029743;28;20048;-62
2022/09/23 06:00:44;;;;;;;10.07;5.55;;;;;;;;;;5033446;28;20041;-62
2022/09/23 06:03:14;;;;;;;12.48;6.25;;;;;;;;;;5030677;28;20046;-63
2022/09/23 06:05:40;;;;;;;7.95;5.43;;;;;;;;;;5041238;28;20046;-61
2022/09/23 06:08:07;;;;;;;10.65;5.72;;;;;;;;;;5050878;28;20052;-61
2022/09/23 06:10:40;;;;;;;10.65;5.70;;;;;;;;;;5046875;28;20544;-62
2022/09/23 06:13:06;;;;;;;9.43;5.40;;;;;;;;;;5049895;28;20025;-61
2022/09/23 06:15:31;;;;;;;8.00;5.15;;;;;;;;;;5035398;28;20092;-60
2022/09/23 06:17:58;;;;;;;9.50;5.45;;;;;;;;;;5031814;28;20037;-62
2022/09/23 06:20:23;;;;;;;8.77;5.53;;;;;;;;;;5050291;28;20545;-62
2022/09/23 06:22:49;;;;;;;7.75;5.57;;;;;;;;;;5049603;28;20112;-62
2022/09/23 06:25:15;;;;;;;9.00;5.13;;;;;;;;;;5048340;28;20112;-62
2022/09/23 06:27:40;;;;;;;8.10;5.30;;;;;;;;;;5043986;28;20065;-62
2022/09/23 06:30:06;;;;;;;10.90;5.10;;;;;;;;;;5031386;28;20068;-63
2022/09/23 06:32:32;;;;;;;8.00;4.90;;;;;;;;;;5041335;28;20072;-61
2022/09/23 06:34:57;;;;;;;7.75;4.68;;;;;;;;;;5050261;28;20037;-61
2022/09/23 06:37:23;;;;;;;6.90;4.35;;;;;;;;;;5046786;28;20043;-62
2022/09/23 06:39:49;;;;;;;7.68;4.78;;;;;;;;;;5050144;28;20033;-62
2022/09/23 06:42:15;;;;;;;6.78;4.30;;;;;;;;;;5051414;28;20461;-62
2022/09/23 06:44:41;;;;;;;6.60;4.10;;;;;;;;;;5049315;28;20137;-60
2022/09/23 06:47:07;;;;;;;7.30;4.20;;;;;;;;;;5048916;28;20033;-61
2022/09/23 06:49:32;;;;;;;7.00;4.00;;;;;;;;;;5036970;28;20466;-62
2022/09/23 06:51:58;;;;;;;5.70;3.90;;;;;;;;;;5029219;28;20397;-62
2022/09/23 06:54:27;;;;;;;6.07;3.53;;;;;;;;;;5034282;28;20040;-62
2022/09/23 06:56:53;;;;;;;10.88;4.30;;;;;;;;;;5047191;28;20112;-62
2022/09/23 06:59:18;;;;;;;7.22;4.10;;;;;;;;;;5037481;28;20128;-61
2022/09/23 07:01:46;;;;;;;6.55;3.85;;;;;;;;;;5034261;28;20482;-61
2022/09/23 07:04:12;;;;;;;7.28;3.97;;;;;;;;;;5019905;28;20024;-63
2022/09/23 07:06:37;;;;;;;7.20;3.72;;;;;;;;;;5053556;28;20091;-62
2022/09/23 07:09:04;;;;;;;7.20;4.00;;;;;;;;;;5049789;28;20040;-62
2022/09/23 07:11:30;;;;;;;8.23;4.00;;;;;;;;;;5032631;28;20033;-62
2022/09/23 07:13:55;;;;;;;7.50;4.00;;;;;;;;;;5040237;28;20363;-62
2022/09/23 07:16:20;;;;;;;7.00;3.97;;;;;;;;;;5032449;28;20110;-61
2022/09/23 07:18:46;;;;;;;9.18;4.70;;;;;;;;;;5029622;28;20024;-61
2022/09/23 07:21:16;;;;;;;10.98;4.13;;;;;;;;;;5033955;28;20045;-61
2022/09/23 07:23:44;;;;;;;11.63;4.40;;;;;;;;;;5017811;28;20058;-61
2022/09/23 07:26:10;;;;;;;8.27;3.95;;;;;;;;;;5014395;28;20034;-62
2022/09/23 07:28:36;;;;;;;7.72;3.90;;;;;;;;;;5037337;28;20523;-61
2022/09/23 07:31:08;;;;;;;11.77;4.72;;;;;;;;;;5022396;28;20046;-60
2022/09/23 07:33:36;;;;;;;9.98;4.60;;;;;;;;;;5041390;28;20788;-61
2022/09/23 07:36:12;;;;;;;9.48;4.18;;;;;;;;;;5029282;28;20550;-62
2022/09/23 07:38:37;;;;;;;7.63;4.22;;;;;;;;;;5048301;28;20033;-61
2022/09/23 07:41:06;;;;;;;6.93;4.35;;;;;;;;;;5036627;28;20033;-61
2022/09/23 07:43:54;;;;;;;9.07;4.70;;;;;;;;;;5045090;28;20048;-61
2022/09/23 07:46:20;;;;;;;10.55;4.55;;;;;;;;;;5046880;28;20083;-60
2022/09/23 07:48:45;;;;;;;9.45;4.32;;;;;;;;;;5033937;28;20041;-62
2022/09/23 07:51:28;;;;;;;7.57;4.35;;;;;;;;;;5042004;28;20423;-62
2022/09/23 07:53:54;;;;;;;10.07;4.30;;;;;;;;;;5053974;28;20041;-61
2022/09/23 07:56:22;;;;;;;8.73;4.15;;;;;;;;;;5033893;28;20028;-60
2022/09/23 07:59:09;;;;;;;8.90;4.57;;;;;;;;;;5035461;28;20029;-63
2022/09/23 08:01:56;;;;;;;7.35;4.22;;;;;;;;;;5038617;28;20056;-63
2022/09/23 08:04:26;;;;;;;10.63;4.30;;;;;;;;;;5032730;28;20079;-61
2022/09/23 08:06:57;;;;;;;9.27;4.50;;;;;;;;;;5012870;28;20459;-60
2022/09/23 08:09:26;;;;;;;11.75;4.60;;;;;;;;;;5027448;28;20037;-60
2022/09/23 08:11:52;;;;;;;12.93;4.00;;;;;;;;;;5018195;28;20042;-61
2022/09/23 08:14:18;;;;;;;8.60;3.92;;;;;;;;;;5036347;28;20025;-60
2022/09/23 08:16:45;;;;;;;11.45;4.15;;;;;;;;;;5040563;28;20041;-60
2022/09/23 08:19:11;;;;;;;10.80;3.67;;;;;;;;;;5037235;28;20049;-60
2022/09/23 08:21:38;;;;;;;6.57;3.80;;;;;;;;;;5052496;28;20747;-62
2022/09/23 08:24:04;;;;;;;8.95;3.47;;;;;;;;;;5051445;28;20394;-60
2022/09/23 08:26:33;;;;;;;8.43;3.33;;;;;;;;;;5052271;28;20108;-60
2022/09/23 08:28:59;;;;;;;8.73;3.63;;;;;;;;;;5046167;28;20028;-62
2022/09/23 08:31:24;;;;;;;9.70;3.72;;;;;;;;;;5023895;28;20026;-61
2022/09/23 08:33:54;;;;;;;5.22;3.15;;;;;;;;;;5037558;28;20094;-61
2022/09/23 08:36:20;;;;;;;7.50;3.27;;;;;;;;;;5031273;28;20056;-61
2022/09/23 08:38:45;;;;;;;6.68;3.38;;;;;;;;;;5039569;28;20270;-61
2022/09/23 08:41:37;;;;;;;6.88;3.03;;;;;;;;;;5035067;28;20474;-63
2022/09/23 08:44:41;;;;;;;5.20;3.05;;;;;;;;;;5042252;28;20052;-62
2022/09/23 08:47:18;;;;;;;6.70;3.05;;;;;;;;;;5027889;28;20061;-62
2022/09/23 08:50:05;;;;;;;7.13;3.00;;;;;;;;;;5052828;28;20031;-64
2022/09/23 08:52:49;;;;;;;8.80;2.97;;;;;;;;;;5050730;28;20104;-63
2022/09/23 08:55:16;;;;;;;5.30;2.72;;;;;;;;;;5049496;28;20040;-60
2022/09/23 08:57:41;;;;;;;7.80;2.97;;;;;;;;;;5020327;28;20033;-60
2022/09/23 09:00:17;;;;;;;6.55;2.75;;;;;;;;;;5030569;28;20039;-61
2022/09/23 09:02:43;;;;;;;7.30;2.65;;;;;;;;;;5031798;28;20036;-61
2022/09/23 09:05:11;;;;;;;7.25;2.90;;;;;;;;;;5046352;28;20036;-61
2022/09/23 09:07:39;;;;;;;6.70;2.70;;;;;;;;;;5047227;28;20036;-61
2022/09/23 09:10:27;;;;;;;4.60;2.97;;;;;;;;;;5044463;28;20429;-60
2022/09/23 09:13:06;;;;;;;5.93;2.60;;;;;;;;;;5038498;28;20044;-61
2022/09/23 09:15:41;;;;;;;6.13;2.60;;;;;;;;;;5028187;28;20114;-61
2022/09/23 09:18:20;;;;;;;4.68;2.55;;;;;;;;;;5012362;28;20042;-61
2022/09/23 09:20:51;;;;;;;4.38;2.47;;;;;;;;;;4998594;28;20077;-61
2022/09/23 09:23:21;;;;;;;6.53;2.60;;;;;;;;;;5038159;28;20037;-60
2022/09/23 09:25:51;;;;;;;5.75;2.58;;;;;;;;;;5032479;28;20744;-61
2022/09/23 09:28:34;;;;;;;4.80;2.40;;;;;;;;;;5034200;28;20035;-60
2022/09/23 09:31:04;;;;;;;3.45;2.20;;;;;;;;;;5034656;28;20040;-60
2022/09/23 09:33:46;;;;;;;4.05;2.33;;;;;;;;;;5049096;28;20025;-62
2022/09/23 09:36:30;;;;;;;5.35;2.25;;;;;;;;;;5048879;28;20036;-62
2022/09/23 09:38:58;;;;;;;5.00;2.40;;;;;;;;;;5043813;28;20042;-62
2022/09/23 09:41:26;;;;;;;5.05;2.25;;;;;;;;;;5033058;28;20025;-64
2022/09/23 09:43:58;;;;;;;6.13;2.17;;;;;;;;;;5051963;28;20122;-63
2022/09/23 09:46:43;;;;;;;3.83;2.20;;;;;;;;;;5042907;28;20025;-63
2022/09/23 09:49:33;;;;;;;5.63;2.33;;;;;;;;;;5017894;28;20034;-63
2022/09/23 09:52:17;;;;;;;5.05;2.25;;;;;;;;;;5037632;28;20366;-63
2022/09/23 09:54:43;;;;;;;4.25;2.40;;;;;;;;;;5050738;28;20059;-62
2022/09/23 09:57:17;;;;;;;5.32;2.38;;;;;;;;;;5037189;28;20116;-64
2022/09/23 09:59:43;;;;;;;4.55;2.30;;;;;;;;;;5044439;28;20052;-62
2022/09/23 10:02:35;;;;;;;4.25;2.30;;;;;;;;;;5027201;28;20383;-61
2022/09/23 10:05:05;;;;;;;4.93;2.25;;;;;;;;;;5022027;28;20033;-61
2022/09/23 10:07:33;;;;;;;5.18;2.35;;;;;;;;;;5031500;28;20028;-61
2022/09/23 10:10:16;;;;;;;6.00;2.55;;;;;;;;;;5027124;28;20026;-61
2022/09/23 10:12:48;;;;;;;4.22;2.30;;;;;;;;;;5031244;28;20136;-61
2022/09/23 10:15:43;;;;;;;3.25;2.10;;;;;;;;;;5050919;28;20480;-61
2022/09/23 10:18:18;;;;;;;3.80;2.10;;;;;;;;;;5042826;28;20033;-61
2022/09/23 10:20:45;;;;;;;5.43;2.22;;;;;;;;;;5032683;28;20095;-62
2022/09/23 10:23:19;;;;;;;4.78;2.45;;;;;;;;;;5028561;28;20037;-61
2022/09/23 10:25:56;;;;;;;3.65;2.22;;;;;;;;;;5031430;28;20026;-61
2022/09/23 10:28:44;;;;;;;6.22;2.30;;;;;;;;;;5037438;28;20040;-61
2022/09/23 10:31:31;;;;;;;6.13;2.28;;;;;;;;;;5032912;28;20087;-61
2022/09/23 10:34:02;;;;;;;4.57;2.10;;;;;;;;;;5011284;28;20410;-61
2022/09/23 10:36:29;;;;;;;;;;;;;;;;;;5011691;28;20061;-61
2022/09/23 10:48:23;;;;;;;4.15;2.30;;;;;;;;;;5016693;28;20056;-61
2022/09/23 10:50:52;;;;;;;4.05;2.20;;;;;;;;;;5042357;28;20400;-61
2022/09/23 10:53:41;;;;;;;4.30;2.40;;;;;;;;;;5054267;28;20029;-61
2022/09/23 10:56:24;;;;;;;5.28;2.20;;;;;;;;;;5033412;28;20556;-62
2022/09/23 10:59:10;;;;;;;4.95;2.33;;;;;;;;;;5020969;28;20548;-61
2022/09/23 11:02:00;;;;;;;4.90;2.28;;;;;;;;;;5053778;28;20607;-61
2022/09/23 11:04:32;;;;;;;5.10;2.20;;;;;;;;;;5049241;28;20036;-61
2022/09/23 11:07:06;;;;;;;4.55;2.30;;;;;;;;;;5022087;28;20029;-63
2022/09/23 11:09:49;;;;;;;4.05;1.90;;;;;;;;;;5023171;28;20032;-62
2022/09/23 11:12:17;;;;;;;3.97;2.17;;;;;;;;;;5033992;28;20040;-61
2022/09/23 11:14:50;;;;;;;2.90;1.80;;;;;;;;;;5042452;28;20037;-62
2022/09/23 11:17:37;;;;;;;3.75;2.20;;;;;;;;;;5040200;28;20033;-61
2022/09/23 11:20:11;;;;;;;3.58;2.05;;;;;;;;;;5051773;28;20060;-61
2022/09/23 11:22:55;;;;;;;2.80;1.83;;;;;;;;;;5033544;28;20053;-61
2022/09/23 11:25:58;;;;;;;3.72;2.08;;;;;;;;;;5041500;28;20029;-62
2022/09/23 11:28:35;;;;;;;6.07;2.10;;;;;;;;;;5022799;28;20486;-61
2022/09/23 11:31:20;;;;;;;6.30;2.20;;;;;;;;;;5044193;28;20033;-62
2022/09/23 11:34:13;;;;;;;3.40;1.98;;;;;;;;;;5054535;28;20037;-61
2022/09/23 11:37:06;;;;;;;3.53;2.13;;;;;;;;;;5049227;28;20044;-63
2022/09/23 11:39:38;;;;;;;5.43;1.90;;;;;;;;;;5033889;28;20045;-62
2022/09/23 11:42:12;;;;;;;8.32;2.10;;;;;;;;;;5037569;28;20058;-62
2022/09/23 11:44:52;;;;;;;8.15;2.30;;;;;;;;;;5035187;28;20551;-62
2022/09/23 11:47:23;;;;;;;;;;;;;;;;;;5026740;28;20063;-61
2022/09/23 11:49:58;;;;;;;6.22;2.10;;;;;;;;;;5033255;28;20350;-63
2022/09/23 11:52:32;;;;;;;2.97;2.00;;;;;;;;;;5035945;28;20034;-61
2022/09/23 11:55:10;;;;;;;4.25;1.90;;;;;;;;;;5035137;28;20037;-61
2022/09/23 11:57:46;;;;;;;5.40;1.90;;;;;;;;;;5047369;28;20050;-61
2022/09/23 12:00:18;;;;;;;6.45;3.97;;;;;;;;;;5053546;28;20033;-62
2022/09/23 12:03:09;;;;;;;15.38;7.45;;;;;;;;;;5050796;28;20056;-62
2022/09/23 12:05:46;;;;;;;3.38;2.20;;;;;;;;;;5026624;28;20655;-60
2022/09/23 12:08:27;;;;;;;4.28;2.05;;;;;;;;;;5053447;28;20029;-62
2022/09/23 12:11:23;;;;;;;3.13;1.80;;;;;;;;;;5030113;28;20041;-63
2022/09/23 12:14:19;;;;;;;5.25;2.08;;;;;;;;;;5035028;28;20137;-61
2022/09/23 12:16:52;;;;;;;3.50;2.13;;;;;;;;;;5028533;28;20053;-62
2022/09/23 12:19:42;;;;;;;4.97;2.20;;;;;;;;;;5050508;28;20127;-61
2022/09/23 12:22:20;;;;;;;2.95;1.90;;;;;;;;;;5049045;28;20116;-62
2022/09/23 12:24:49;;;;;;;9.93;2.03;;;;;;;;;;5049054;28;20064;-63
2022/09/23 12:27:33;;;;;;;3.17;1.92;;;;;;;;;;5050667;28;20044;-61
2022/09/23 12:30:03;;;;;;;5.85;2.25;;;;;;;;;;5041333;28;20065;-62
2022/09/23 12:32:29;;;;;;;4.63;2.30;;;;;;;;;;5039657;28;20041;-61
2022/09/23 12:34:55;;;;;;;5.70;2.00;;;;;;;;;;5045421;28;20088;-62
2022/09/23 12:37:27;;;;;;;11.98;8.57;;;;;;;;;;5051851;28;20041;-61
2022/09/23 12:39:53;;;;;;;16.20;10.35;;;;;;;;;;5045872;28;20048;-61
2022/09/23 12:42:21;;;;;;;6.85;3.95;;;;;;;;;;5047360;28;20060;-61
2022/09/23 12:44:48;;;;;;;3.80;2.22;;;;;;;;;;5046784;28;20037;-61
2022/09/23 12:47:13;;;;;;;4.43;2.92;;;;;;;;;;5043943;28;20469;-61
2022/09/23 12:49:39;;;;;;;14.77;11.57;;;;;;;;;;5049784;28;20033;-61
2022/09/23 13:06:37;;;;;;;4.50;2.10;;;;;;;;;;4879210;29;20056;-60
2022/09/23 13:09:12;;;;;;;9.98;4.25;;;;;;;;;;4914831;29;20043;-60
2022/09/23 13:11:40;;;;;;;3.78;2.20;;;;;;;;;;4911330;29;20040;-60
2022/09/23 13:14:06;;;;;;;9.40;4.07;;;;;;;;;;4914049;29;20115;-60
2022/09/23 13:16:35;;;;;;;4.88;3.20;;;;;;;;;;4916320;29;20111;-61
2022/09/23 13:19:03;;;;;;;5.68;2.63;;;;;;;;;;4913268;29;20396;-63
2022/09/23 13:21:41;;;;;;;3.88;2.33;;;;;;;;;;4907214;29;20460;-61
2022/09/23 13:24:13;;;;;;;3.55;2.40;;;;;;;;;;4912738;29;20039;-62
2022/09/23 13:27:15;;;;;;;3.60;2.58;;;;;;;;;;4915133;29;20059;-62
2022/09/23 13:29:46;;;;;;;5.68;2.50;;;;;;;;;;4914933;29;20036;-62
2022/09/23 13:32:16;;;;;;;4.97;2.15;;;;;;;;;;4915173;29;20244;-63
2022/09/23 13:34:46;;;;;;;5.38;2.22;;;;;;;;;;4915246;29;20040;-61
2022/09/23 13:37:23;;;;;;;7.22;3.00;;;;;;;;;;4909520;29;20135;-62
2022/09/23 13:39:49;;;;;;;7.00;3.58;;;;;;;;;;4915694;29;20396;-65
2022/09/23 13:42:27;;;;;;;4.07;2.08;;;;;;;;;;4896868;29;20230;-62
2022/09/23 13:44:56;;;;;;;6.40;2.20;;;;;;;;;;4896719;29;20032;-61
2022/09/23 13:47:26;;;;;;;5.25;2.40;;;;;;;;;;4913565;29;20396;-61
2022/09/23 13:49:52;;;;;;;5.30;2.40;;;;;;;;;;4915360;29;20063;-61
2022/09/23 13:52:25;;;;;;;4.13;2.22;;;;;;;;;;4913556;29;20079;-61
2022/09/23 13:54:51;;;;;;;5.80;2.38;;;;;;;;;;4914865;29;20036;-62
2022/09/23 13:57:33;;;;;;;4.43;2.20;;;;;;;;;;4913909;29;20039;-62
2022/09/23 14:00:20;;;;;;;3.50;2.08;;;;;;;;;;4910966;29;20036;-61
2022/09/23 14:02:45;;;;;;;5.57;2.05;;;;;;;;;;4911368;29;20052;-62
2022/09/23 14:05:12;;;;;;;5.57;2.00;;;;;;;;;;4914883;29;20120;-61
2022/09/23 14:07:38;;;;;;;7.65;2.20;;;;;;;;;;4893633;29;20041;-63
2022/09/23 14:10:05;;;;;;;6.82;2.20;;;;;;;;;;4879484;29;20484;-61
2022/09/23 14:12:31;;;;;;;4.43;2.40;;;;;;;;;;4911275;29;20032;-62
2022/09/23 14:14:56;;;;;;;4.32;2.35;;;;;;;;;;4914571;29;20043;-64
2022/09/23 14:17:22;;;;;;;3.53;2.00;;;;;;;;;;4924171;29;20083;-61
2022/09/23 14:19:49;;;;;;;5.03;2.33;;;;;;;;;;4893071;29;20071;-62
2022/09/23 14:22:26;;;;;;;4.28;2.28;;;;;;;;;;4895225;29;20582;-62
2022/09/23 14:24:54;;;;;;;4.95;2.15;;;;;;;;;;4913083;29;20468;-62
2022/09/23 14:27:27;;;;;;;5.25;2.30;;;;;;;;;;4913041;29;20035;-61
2022/09/23 14:29:53;;;;;;;6.78;2.10;;;;;;;;;;4912558;29;20036;-64
2022/09/23 14:32:25;;;;;;;9.68;2.20;;;;;;;;;;4883825;29;20548;-63
2022/09/23 14:34:59;;;;;;;6.53;2.40;;;;;;;;;;4926892;29;20115;-62
2022/09/23 14:40:25;;;;;;;6.18;2.20;;;;;;;;;;4905083;29;20047;-63
2022/09/23 14:43:07;;;;;;;8.40;2.47;;;;;;;;;;4896060;29;20574;-63
2022/09/23 14:45:36;;;;;;;6.25;2.60;;;;;;;;;;4896573;29;20033;-62
2022/09/23 14:48:14;;;;;;;9.23;2.50;;;;;;;;;;4895061;29;20057;-63
2022/09/23 14:50:55;;;;;;;8.82;2.80;;;;;;;;;;4889153;29;20155;-62
2022/09/23 14:53:32;;;;;;;7.43;2.42;;;;;;;;;;4912184;29;20036;-62
2022/09/23 14:56:08;;;;;;;7.88;2.60;;;;;;;;;;4900616;29;20370;-63
2022/09/23 14:58:50;;;;;;;6.78;2.42;;;;;;;;;;4895462;29;20056;-63
2022/09/23 15:01:31;;;;;;;9.18;2.42;;;;;;;;;;4894949;29;20033;-63
2022/09/23 15:04:26;;;;;;;7.22;2.60;;;;;;;;;;4907927;29;20048;-63
2022/09/23 15:06:58;;;;;;;5.18;2.42;;;;;;;;;;4911427;29;20044;-63
2022/09/23 15:09:34;;;;;;;3.40;2.10;;;;;;;;;;4914137;29;20214;-64
2022/09/23 15:12:03;;;;;;;7.85;2.35;;;;;;;;;;4908332;29;20036;-63
2022/09/23 15:14:34;;;;;;;5.97;2.38;;;;;;;;;;4915011;29;20032;-63
2022/09/23 15:17:01;;;;;;;;;;;;;;;;;;4914144;29;20036;-63
2022/09/23 15:19:28;;;;;;;5.38;2.70;;;;;;;;;;4894675;29;19937;-63
2022/09/23 15:21:54;;;;;;;4.72;2.30;;;;;;;;;;4909347;29;20040;-63
2022/09/23 15:24:43;;;;;;;8.82;2.70;;;;;;;;;;4913069;29;20377;-63
2022/09/23 15:27:33;;;;;;;6.45;3.08;;;;;;;;;;4914324;29;20042;-63
2022/09/23 15:30:16;;;;;;;6.20;2.70;;;;;;;;;;4908419;29;20496;-63
2022/09/23 15:32:45;;;;;;;6.20;3.63;;;;;;;;;;4916346;29;20476;-63
2022/09/23 15:35:17;;;;;;;7.80;4.50;;;;;;;;;;4916688;29;20083;-64
2022/09/23 15:37:44;;;;;;;7.60;3.72;;;;;;;;;;4915146;29;20036;-64
2022/09/23 15:40:20;;;;;;;7.72;2.72;;;;;;;;;;4896538;29;20385;-62
2022/09/23 15:42:50;;;;;;;8.10;4.90;;;;;;;;;;4911217;29;20051;-63
2022/09/23 15:45:16;;;;;;;8.63;3.80;;;;;;;;;;4914867;29;20091;-63